Time;durP1;ratioP1;P1;durP2;ratioP2;P2;SDS_P1;SDS_P2;PMS_P1;PMS_P2;Temp;Humidity;BMP_temperature;BMP_pressure;BME280_temperature;BME280_humidity;BME280_pressure;Samples;Min_cycle;Max_cycle;Signal;HPM_P1;HPM_P2
2021/10/20 00:02:06;;;;;;;26.40;11.48;;;;;;;-1.77;87.17;101139.36;1588459;89;21092;-75
2021/10/20 00:04:33;;;;;;;18.48;7.97;;;;;;;-1.82;87.54;101145.69;1590176;89;21041;-74
2021/10/20 00:06:59;;;;;;;18.17;7.70;;;;;;;-1.84;88.19;101149.05;1605703;89;21160;-74
2021/10/20 00:09:26;;;;;;;24.95;11.08;;;;;;;-1.87;88.87;101156.72;1605493;89;21092;-74
2021/10/20 00:11:54;;;;;;;13.32;6.53;;;;;;;-1.90;89.48;101163.97;1607856;89;21082;-74
2021/10/20 00:14:22;;;;;;;26.75;11.60;;;;;;;-1.91;90.07;101169.55;1610899;89;21065;-75
2021/10/20 00:16:49;;;;;;;36.73;13.70;;;;;;;-1.94;90.44;101154.37;1611240;89;21603;-74
2021/10/20 00:19:16;;;;;;;42.27;15.90;;;;;;;-1.96;90.71;101144.41;1610859;89;21194;-71
2021/10/20 00:21:42;;;;;;;41.23;15.15;;;;;;;-1.97;90.97;101146.12;1610676;89;21033;-75
2021/10/20 00:24:09;;;;;;;54.38;19.27;;;;;;;-1.99;91.22;101136.58;1610550;89;21065;-74
2021/10/20 00:26:37;;;;;;;51.48;19.50;;;;;;;-1.99;91.58;101121.96;1613115;87;21083;-75
2021/10/20 00:29:03;;;;;;;45.63;17.65;;;;;;;-2.01;92.08;101128.78;1622316;88;21559;-74
2021/10/20 00:31:30;;;;;;;53.55;19.70;;;;;;;-2.01;92.37;101126.20;1621829;88;21149;-73
2021/10/20 00:33:57;;;;;;;51.37;21.50;;;;;;;-2.03;92.55;101124.41;1622013;88;21060;-74
2021/10/20 00:36:24;;;;;;;51.50;20.27;;;;;;;-2.06;92.48;101119.16;1621981;88;21178;-73
2021/10/20 00:38:50;;;;;;;47.08;19.15;;;;;;;-2.08;92.53;101119.52;1622235;88;21056;-73
2021/10/20 00:41:17;;;;;;;43.38;16.50;;;;;;;-2.10;92.57;101124.63;1622145;88;21106;-73
2021/10/20 00:43:44;;;;;;;30.35;12.43;;;;;;;-2.11;92.74;101133.22;1621784;88;21187;-72
2021/10/20 00:46:10;;;;;;;30.32;12.33;;;;;;;-2.11;93.01;101137.09;1621572;88;21100;-74
2021/10/20 00:48:37;;;;;;;30.77;10.95;;;;;;;-2.14;93.17;101126.65;1619209;88;21151;-75
2021/10/20 00:51:04;;;;;;;27.32;11.28;;;;;;;-2.15;93.33;101115.88;1619349;88;21570;-74
2021/10/20 00:53:31;;;;;;;25.80;11.05;;;;;;;-2.15;93.48;101115.88;1618985;88;21084;-74
2021/10/20 00:55:57;;;;;;;23.55;10.98;;;;;;;-2.17;93.72;101111.08;1619428;88;21143;-76
2021/10/20 00:58:24;;;;;;;22.60;10.48;;;;;;;-2.19;93.73;101103.70;1595295;88;21096;-75
2021/10/20 01:00:50;;;;;;;24.15;10.58;;;;;;;-2.20;93.67;101103.26;1619316;88;21092;-75
2021/10/20 01:03:16;;;;;;;17.10;8.48;;;;;;;-2.25;93.65;101097.95;1619077;88;21008;-75
2021/10/20 01:05:45;;;;;;;18.40;8.40;;;;;;;-2.29;93.69;101096.52;1621197;88;21776;-78
2021/10/20 01:08:12;;;;;;;25.97;10.90;;;;;;;-2.30;93.94;101101.20;1621971;88;21178;-78
2021/10/20 01:10:39;;;;;;;39.45;15.23;;;;;;;-2.33;94.12;101108.02;1599585;88;21087;-76
2021/10/20 01:13:06;;;;;;;32.35;14.55;;;;;;;-2.35;94.16;101109.70;1585605;90;21108;-78
2021/10/20 01:15:34;;;;;;;33.00;15.08;;;;;;;-2.36;94.16;101116.97;1585588;90;21076;-79
2021/10/20 01:18:02;;;;;;;43.95;18.50;;;;;;;-2.36;94.38;101116.09;1543789;93;21578;-79
2021/10/20 01:20:32;;;;;;;51.37;20.93;;;;;;;-2.37;94.67;101116.52;1569581;91;21176;-78
2021/10/20 01:23:00;;;;;;;57.00;21.65;;;;;;;-2.41;94.98;101109.50;1585636;90;21680;-78
2021/10/20 01:25:28;;;;;;;51.53;21.15;;;;;;;-2.43;95.38;101107.29;1585592;90;21615;-80
2021/10/20 01:27:56;;;;;;;53.78;21.73;;;;;;;-2.44;95.64;101110.71;1585796;89;21099;-80
2021/10/20 01:30:23;;;;;;;49.10;21.00;;;;;;;-2.47;95.85;101114.46;1586084;90;21431;-78
2021/10/20 01:32:50;;;;;;;51.73;20.20;;;;;;;-2.48;96.11;101111.44;1585953;90;21121;-76
2021/10/20 01:35:16;;;;;;;35.70;16.00;;;;;;;-2.48;96.33;101107.56;1586050;90;21026;-76
2021/10/20 01:37:45;;;;;;;37.03;15.83;;;;;;;-2.49;96.43;101103.22;1585802;90;21115;-75
2021/10/20 01:40:11;;;;;;;35.03;14.87;;;;;;;-2.50;96.63;101107.92;1585877;90;21047;-78
2021/10/20 01:42:38;;;;;;;30.43;15.40;;;;;;;-2.53;96.77;101103.97;1585826;90;21375;-78
2021/10/20 01:45:09;;;;;;;37.83;15.23;;;;;;;-2.55;96.89;101096.59;1586040;90;21585;-75
2021/10/20 01:47:36;;;;;;;44.13;17.85;;;;;;;-2.58;97.02;101100.34;1585599;89;21624;-75
2021/10/20 01:50:09;;;;;;;42.93;17.50;;;;;;;-2.60;97.13;101098.13;1586038;89;21110;-72
2021/10/20 01:52:36;;;;;;;44.95;20.12;;;;;;;-2.64;97.04;101104.04;1585985;90;21142;-73
2021/10/20 01:55:06;;;;;;;46.83;18.25;;;;;;;-2.71;97.11;101108.51;1586019;90;21042;-72
2021/10/20 01:57:34;;;;;;;48.68;20.40;;;;;;;-2.74;97.29;101105.42;1585996;89;21071;-72
2021/10/20 02:00:01;;;;;;;51.10;22.52;;;;;;;-2.76;97.64;101110.55;1585886;90;22243;-73
2021/10/20 02:02:27;;;;;;;59.80;22.20;;;;;;;-2.75;97.90;101103.27;1585558;90;21101;-73
2021/10/20 02:04:53;;;;;;;46.70;22.40;;;;;;;-2.76;98.01;101108.36;1588348;90;21605;-72
2021/10/20 02:07:20;;;;;;;47.08;21.25;;;;;;;-2.76;98.11;101111.84;1591416;90;21040;-73
2021/10/20 02:09:49;;;;;;;53.23;22.95;;;;;;;-2.76;98.22;101110.55;1578958;90;21169;-73
2021/10/20 02:12:15;;;;;;;54.80;23.85;;;;;;;-2.75;98.31;101106.27;1593226;90;21179;-73
2021/10/20 02:14:42;;;;;;;61.23;23.55;;;;;;;-2.71;98.57;101109.80;1591618;90;21627;-72
2021/10/20 02:17:08;;;;;;;44.48;19.62;;;;;;;-2.67;98.77;101109.08;1579056;90;21054;-72
2021/10/20 02:19:35;;;;;;;43.85;18.70;;;;;;;-2.64;98.89;101100.17;1593188;90;21096;-72
2021/10/20 02:22:03;;;;;;;49.33;21.87;;;;;;;-2.59;99.10;101105.05;1591742;90;22695;-72
2021/10/20 02:24:30;;;;;;;34.78;14.03;;;;;;;-2.57;99.26;101108.14;1578912;90;21066;-72
2021/10/20 02:26:56;;;;;;;33.20;14.95;;;;;;;-2.52;99.37;101115.16;1592706;88;21065;-75
2021/10/20 02:29:24;;;;;;;22.98;9.88;;;;;;;-2.50;99.44;101114.38;1579059;90;21652;-74
2021/10/20 02:31:50;;;;;;;43.02;17.98;;;;;;;-2.44;99.55;101112.00;1590247;88;21131;-76
2021/10/20 02:34:20;;;;;;;27.52;12.13;;;;;;;-2.39;99.58;101113.02;1644653;87;21114;-75
2021/10/20 02:36:47;;;;;;;39.95;17.87;;;;;;;-2.33;99.60;101115.76;1623906;88;21057;-75
2021/10/20 02:39:13;;;;;;;52.90;20.00;;;;;;;-2.26;99.70;101112.09;1623878;88;21274;-74
2021/10/20 02:41:39;;;;;;;47.73;20.08;;;;;;;-2.22;99.68;101124.27;1624142;88;21082;-76
2021/10/20 02:44:06;;;;;;;47.48;19.02;;;;;;;-2.17;99.72;101123.98;1623848;88;21557;-76
2021/10/20 02:46:32;;;;;;;42.15;18.57;;;;;;;-2.12;99.89;101128.48;1623600;88;21133;-75
2021/10/20 02:49:01;;;;;;;48.25;19.55;;;;;;;-2.03;100.00;101131.72;1623522;88;21082;-76
2021/10/20 02:51:29;;;;;;;48.50;20.85;;;;;;;-1.95;100.00;101131.55;1623709;88;21105;-76
2021/10/20 02:53:57;;;;;;;53.50;20.80;;;;;;;-1.87;100.00;101133.48;1623872;88;21101;-76
2021/10/20 02:56:25;;;;;;;45.25;19.62;;;;;;;-1.80;99.95;101135.41;1624041;88;21117;-76
2021/10/20 02:58:52;;;;;;;49.27;20.25;;;;;;;-1.71;99.93;101146.01;1623854;88;21140;-75
2021/10/20 03:01:19;;;;;;;48.00;20.55;;;;;;;-1.63;99.95;101141.05;1624112;88;21538;-77
2021/10/20 03:03:46;;;;;;;54.73;21.50;;;;;;;-1.53;99.86;101141.38;1608473;89;21069;-77
2021/10/20 03:06:14;;;;;;;40.55;19.00;;;;;;;-1.48;99.83;101134.62;1592651;89;21133;-76
2021/10/20 03:08:42;;;;;;;37.90;16.77;;;;;;;-1.39;99.87;101128.84;1591187;90;21054;-77
2021/10/20 03:11:09;;;;;;;43.73;19.60;;;;;;;-1.30;99.86;101122.63;1622843;88;21153;-83
2021/10/20 03:13:36;;;;;;;39.15;17.57;;;;;;;-1.22;99.88;101124.15;1624833;87;21708;-83
2021/10/20 03:16:05;;;;;;;47.23;20.80;;;;;;;-1.15;99.86;101126.06;1624637;88;21169;-80
2021/10/20 03:18:32;;;;;;;49.48;21.02;;;;;;;-1.08;99.78;101127.09;1622646;88;21073;-80
2021/10/20 03:20:59;;;;;;;54.70;21.87;;;;;;;-1.01;99.89;101121.64;1622061;88;21007;-79
2021/10/20 03:23:25;;;;;;;49.25;20.68;;;;;;;-0.95;99.91;101113.62;1621775;88;21134;-80
2021/10/20 03:25:52;;;;;;;53.58;22.85;;;;;;;-0.92;100.00;101111.53;1621727;88;21049;-77
2021/10/20 03:28:18;;;;;;;51.83;23.20;;;;;;;-0.85;100.00;101105.70;1588540;90;21627;-79
2021/10/20 03:30:44;;;;;;;48.63;22.67;;;;;;;-0.78;100.00;101103.73;1614622;88;21075;-79
2021/10/20 03:33:11;;;;;;;55.38;24.63;;;;;;;-0.73;100.00;101107.30;1614827;88;21086;-79
2021/10/20 03:35:37;;;;;;;50.80;22.95;;;;;;;-0.66;100.00;101090.22;1614485;88;21520;-77
2021/10/20 03:38:06;;;;;;;53.70;22.75;;;;;;;-0.60;100.00;101086.88;1614654;88;21542;-79
2021/10/20 03:42:00;;;;;;;46.10;18.77;;;;;;;-0.46;100.00;101089.37;1796217;79;23473;-77
2021/10/20 03:44:26;;;;;;;63.92;25.92;;;;;;;-0.43;100.00;101097.23;1752724;81;21612;-77
2021/10/20 03:46:52;;;;;;;53.73;25.52;;;;;;;-0.34;100.00;101102.61;1748037;81;21277;-79
2021/10/20 03:49:19;;;;;;;60.40;26.05;;;;;;;-0.26;100.00;101106.23;1748164;82;21010;-79
2021/10/20 03:51:45;;;;;;;59.75;27.00;;;;;;;-0.18;100.00;101106.82;1748128;82;21073;-78
2021/10/20 03:54:12;;;;;;;67.53;29.87;;;;;;;-0.09;100.00;101114.40;1747956;82;21560;-78
2021/10/20 03:56:39;;;;;;;73.75;29.42;;;;;;;0.01;100.00;101116.77;1747904;82;21105;-76
2021/10/20 03:59:05;;;;;;;76.02;31.80;;;;;;;0.09;99.79;101107.45;1724788;81;21103;-81
2021/10/20 04:01:33;;;;;;;71.53;31.05;;;;;;;0.18;99.44;101092.50;1665425;85;21063;-73
2021/10/20 04:04:00;;;;;;;80.97;33.28;;;;;;;0.27;99.14;101103.48;1667057;85;21591;-78
2021/10/20 04:06:26;;;;;;;86.85;34.95;;;;;;;0.35;98.91;101100.64;1683321;84;21124;-77
2021/10/20 04:08:52;;;;;;;65.22;28.55;;;;;;;0.44;98.63;101099.92;1678775;85;21076;-79
2021/10/20 04:11:20;;;;;;;74.22;29.72;;;;;;;0.50;98.28;101096.16;1677940;84;21179;-75
2021/10/20 04:13:47;;;;;;;60.12;27.07;;;;;;;0.57;97.83;101096.73;1682897;84;21587;-78
2021/10/20 04:16:16;;;;;;;56.77;23.18;;;;;;;0.66;97.27;101092.16;1689786;84;21619;-77
2021/10/20 04:18:42;;;;;;;52.83;21.55;;;;;;;0.69;96.22;101087.02;1689460;84;21096;-76
2021/10/20 04:21:08;;;;;;;54.35;23.47;;;;;;;0.72;95.76;101084.50;1675598;84;21120;-77
2021/10/20 04:23:35;;;;;;;53.33;23.77;;;;;;;0.76;95.21;101082.39;1657400;86;21618;-80
2021/10/20 04:26:02;;;;;;;61.37;24.43;;;;;;;0.79;94.91;101083.77;1675533;85;21623;-79
2021/10/20 04:28:28;;;;;;;55.75;25.52;;;;;;;0.82;94.69;101076.03;1684865;85;21072;-78
2021/10/20 04:30:54;;;;;;;63.08;29.30;;;;;;;0.87;93.80;101074.38;1691879;84;21068;-77
2021/10/20 04:33:21;;;;;;;62.08;28.75;;;;;;;0.92;92.77;101080.55;1668580;85;21151;-78
2021/10/20 04:35:47;;;;;;;58.45;25.60;;;;;;;1.00;91.98;101085.86;1674952;85;22140;-79
2021/10/20 04:38:14;;;;;;;53.42;22.98;;;;;;;1.11;90.25;101088.65;1687159;84;21109;-79
2021/10/20 04:40:40;;;;;;;50.78;22.35;;;;;;;1.16;89.59;101085.70;1694955;84;21097;-78
2021/10/20 04:43:07;;;;;;;50.88;22.90;;;;;;;1.24;88.90;101093.17;1656475;85;21085;-79
2021/10/20 04:45:34;;;;;;;50.38;20.32;;;;;;;1.32;88.03;101092.88;1655687;86;21075;-78
2021/10/20 04:48:00;;;;;;;43.42;19.12;;;;;;;1.38;87.20;101089.09;1647351;84;21153;-78
2021/10/20 04:50:27;;;;;;;42.95;18.62;;;;;;;1.46;86.36;101087.48;1684727;83;21089;-78
2021/10/20 04:52:53;;;;;;;42.43;18.37;;;;;;;1.54;86.12;101084.13;1692961;83;21007;-79
2021/10/20 04:55:20;;;;;;;43.98;19.60;;;;;;;1.63;86.68;101081.66;1687398;84;20975;-78
2021/10/20 04:57:53;;;;;;;36.63;15.98;;;;;;;1.70;85.99;101079.59;1681862;84;21098;-77
2021/10/20 05:00:22;;;;;;;33.42;12.20;;;;;;;1.76;84.43;101073.20;1702918;83;21136;-74
2021/10/20 05:02:50;;;;;;;25.08;10.28;;;;;;;1.91;79.91;101069.06;1672757;85;27234;-78
2021/10/20 05:05:18;;;;;;;31.07;12.90;;;;;;;2.04;78.76;101065.78;1669732;85;21058;-79
2021/10/20 05:07:54;;;;;;;26.52;10.35;;;;;;;2.16;80.04;101052.92;1683400;84;21162;-79
2021/10/20 05:10:22;;;;;;;22.27;10.60;;;;;;;2.24;78.12;101053.04;1691253;84;21082;-78
2021/10/20 05:12:48;;;;;;;22.90;10.30;;;;;;;2.33;75.52;101044.48;1685657;84;21142;-78
2021/10/20 05:15:16;;;;;;;24.25;9.88;;;;;;;2.46;75.74;101048.94;1687321;84;21097;-79
2021/10/20 05:17:43;;;;;;;26.02;10.95;;;;;;;2.46;75.74;101048.94;1686481;84;21058;-78
2021/10/20 05:20:13;;;;;;;21.42;10.72;;;;;;;2.57;76.17;101059.03;1675838;85;21094;-78
2021/10/20 05:22:40;;;;;;;24.37;11.25;;;;;;;2.67;75.12;101051.78;1693484;84;21137;-78
2021/10/20 05:25:08;;;;;;;32.35;12.28;;;;;;;2.80;75.89;101043.66;1676967;85;21555;-77
2021/10/20 05:27:34;;;;;;;27.15;11.22;;;;;;;2.92;73.89;101045.09;1678465;84;21511;-77
2021/10/20 05:30:00;;;;;;;26.73;12.00;;;;;;;3.05;72.34;101046.05;1664313;84;21980;-74
2021/10/20 05:32:27;;;;;;;25.88;12.00;;;;;;;3.17;71.40;101033.99;1675068;85;21626;-74
2021/10/20 05:34:54;;;;;;;30.48;12.43;;;;;;;3.23;70.50;101034.05;1680251;84;21104;-75
2021/10/20 05:37:20;;;;;;;27.85;11.95;;;;;;;3.22;70.90;101037.50;1662148;83;21472;-75
2021/10/20 05:39:48;;;;;;;27.62;12.80;;;;;;;3.23;72.07;101026.23;1698859;84;21555;-75
2021/10/20 05:42:16;;;;;;;31.42;14.20;;;;;;;3.25;72.23;101033.63;1671037;83;21148;-74
2021/10/20 05:44:42;;;;;;;27.30;11.18;;;;;;;3.28;72.24;101032.34;1721522;82;21007;-74
2021/10/20 05:47:10;;;;;;;26.55;11.95;;;;;;;3.27;71.64;101030.62;1719183;82;21006;-73
2021/10/20 05:49:36;;;;;;;26.90;11.48;;;;;;;3.33;71.94;101035.84;1716228;82;22106;-74
2021/10/20 05:52:04;;;;;;;27.17;13.93;;;;;;;3.41;72.00;101034.18;1718578;82;21129;-74
2021/10/20 05:54:32;;;;;;;29.95;13.00;;;;;;;3.56;72.54;101036.86;1668466;85;21355;-74
2021/10/20 05:56:58;;;;;;;35.98;14.20;;;;;;;3.75;72.59;101029.15;1653538;85;21056;-74
2021/10/20 05:59:24;;;;;;;29.60;13.18;;;;;;;3.98;72.29;101019.73;1645228;81;21036;-74
2021/10/20 06:01:51;;;;;;;29.02;12.58;;;;;;;4.19;70.51;101019.38;1677984;85;21117;-74
2021/10/20 06:04:18;;;;;;;28.95;12.45;;;;;;;4.30;69.28;101018.98;1675138;85;21094;-74
2021/10/20 06:06:46;;;;;;;26.05;11.97;;;;;;;4.41;69.37;101014.64;1686497;84;21631;-75
2021/10/20 06:09:13;;;;;;;29.25;12.65;;;;;;;4.43;68.62;101009.44;1672331;84;21147;-75
2021/10/20 06:11:40;;;;;;;28.42;12.23;;;;;;;4.41;68.81;101012.03;1696119;84;21093;-74
2021/10/20 06:14:08;;;;;;;27.37;12.53;;;;;;;4.35;68.49;101005.52;1693152;84;21940;-75
2021/10/20 06:16:38;;;;;;;30.40;12.75;;;;;;;4.47;68.60;100992.93;1696233;84;21730;-76
2021/10/20 06:19:06;;;;;;;25.57;11.85;;;;;;;4.65;67.76;100992.09;1677797;84;25407;-77
2021/10/20 06:21:33;;;;;;;29.07;12.65;;;;;;;5.05;66.82;100979.90;1669208;84;21082;-75
2021/10/20 06:24:00;;;;;;;24.25;12.30;;;;;;;5.62;66.42;100984.16;1693225;84;21102;-75
2021/10/20 06:26:26;;;;;;;25.82;12.98;;;;;;;6.25;63.64;100976.06;1693033;84;21146;-76
2021/10/20 06:28:55;;;;;;;32.50;13.60;;;;;;;6.75;60.90;100968.77;1688974;84;21115;-75
2021/10/20 06:31:21;;;;;;;24.85;11.88;;;;;;;7.16;60.85;100981.50;1669309;84;21100;-75
2021/10/20 06:33:48;;;;;;;29.55;14.65;;;;;;;7.63;57.59;100981.44;1687596;84;21073;-75
2021/10/20 06:36:23;;;;;;;22.22;12.23;;;;;;;7.97;56.85;100984.98;1690786;84;21057;-74
2021/10/20 06:38:49;;;;;;;24.10;12.75;;;;;;;8.25;55.09;100985.92;1691861;84;21513;-74
2021/10/20 06:41:16;;;;;;;32.83;14.45;;;;;;;8.34;56.16;100976.61;1647982;86;21060;-75
2021/10/20 06:43:43;;;;;;;28.80;14.18;;;;;;;8.39;55.21;100985.28;1695671;84;21109;-76
2021/10/20 06:46:10;;;;;;;30.57;13.22;;;;;;;8.20;56.56;100976.34;1678884;84;21090;-74
2021/10/20 06:48:38;;;;;;;26.55;11.93;;;;;;;8.08;55.85;100967.34;1697155;84;21026;-76
2021/10/20 06:51:06;;;;;;;21.42;11.75;;;;;;;7.87;55.76;100965.02;1663303;84;21068;-75
2021/10/20 06:53:33;;;;;;;23.25;11.28;;;;;;;7.64;56.47;100962.22;1696662;84;21093;-76
2021/10/20 06:56:01;;;;;;;23.98;11.08;;;;;;;7.43;56.51;100955.88;1697178;84;21034;-77
2021/10/20 06:58:28;;;;;;;21.33;11.88;;;;;;;7.37;57.23;100951.59;1682773;83;21115;-77
2021/10/20 07:00:55;;;;;;;25.30;11.60;;;;;;;7.67;57.92;100952.13;1690037;84;21030;-75
2021/10/20 07:03:22;;;;;;;20.48;10.18;;;;;;;8.29;56.99;100954.82;1694783;84;22136;-76
2021/10/20 07:05:48;;;;;;;24.07;10.80;;;;;;;9.03;53.85;100952.77;1695056;84;21677;-76
2021/10/20 07:08:15;;;;;;;16.70;8.78;;;;;;;9.63;52.94;100942.45;1702120;84;21039;-79
2021/10/20 07:10:41;;;;;;;23.98;9.50;;;;;;;10.36;48.30;100944.89;1695204;84;21110;-76
2021/10/20 07:13:10;;;;;;;18.05;8.18;;;;;;;10.86;45.96;100942.80;1683507;84;21538;-77
2021/10/20 07:15:37;;;;;;;26.60;11.28;;;;;;;11.04;44.12;100930.90;1695173;84;21140;-77
2021/10/20 07:18:04;;;;;;;21.33;9.40;;;;;;;11.13;43.97;100927.59;1694995;84;21082;-77
2021/10/20 07:20:31;;;;;;;19.90;8.58;;;;;;;11.38;44.62;100929.55;1676546;84;21073;-76
2021/10/20 07:22:57;;;;;;;23.95;10.68;;;;;;;11.58;42.82;100933.41;1687548;84;21593;-76
2021/10/20 07:25:24;;;;;;;17.73;8.70;;;;;;;11.66;42.89;100930.94;1695016;83;21073;-76
2021/10/20 07:27:50;;;;;;;19.65;8.60;;;;;;;11.51;42.92;100937.53;1695228;84;21503;-76
2021/10/20 07:30:18;;;;;;;17.85;8.68;;;;;;;11.83;43.37;100925.20;1677626;84;21094;-77
2021/10/20 07:32:45;;;;;;;22.17;9.38;;;;;;;12.25;42.04;100926.61;1656710;86;21045;-75
2021/10/20 07:35:16;;;;;;;20.08;10.63;;;;;;;12.50;41.83;100927.55;1685557;83;21070;-76
2021/10/20 07:37:42;;;;;;;19.48;9.53;;;;;;;12.95;40.26;100928.71;1695415;84;21099;-77
2021/10/20 07:40:11;;;;;;;14.43;8.50;;;;;;;13.31;40.48;100905.44;1695173;84;21512;-76
2021/10/20 07:42:39;;;;;;;19.87;9.08;;;;;;;13.47;39.20;100905.75;1695151;84;21479;-77
2021/10/20 07:45:08;;;;;;;14.18;8.43;;;;;;;13.46;39.04;100904.04;1696478;84;21087;-84
2021/10/20 07:47:35;;;;;;;13.43;8.00;;;;;;;13.42;39.02;100890.05;1695525;84;21637;-83
2021/10/20 07:50:05;;;;;;;19.92;9.75;;;;;;;13.08;39.44;100902.73;1632433;86;20958;-82
2021/10/20 07:52:33;;;;;;;;;;;;;;;12.56;40.81;100901.37;1634676;86;21865;-80
2021/10/20 07:55:04;;;;;;;20.12;9.13;;;;;;;12.25;41.41;100889.64;1628977;85;20250;-79
2021/10/20 07:57:30;;;;;;;17.62;8.70;;;;;;;11.70;42.82;100890.84;1677737;84;21078;-79
2021/10/20 07:59:57;;;;;;;23.55;11.65;;;;;;;11.39;43.95;100885.14;1695077;84;21144;-77
2021/10/20 08:02:24;;;;;;;18.15;9.23;;;;;;;11.37;44.63;100879.04;1707509;83;21081;-77
2021/10/20 08:04:50;;;;;;;22.87;9.65;;;;;;;11.32;45.24;100888.86;1673131;85;21144;-81
2021/10/20 08:07:18;;;;;;;17.35;10.03;;;;;;;11.34;46.05;100890.55;1659301;85;21491;-81
2021/10/20 08:09:46;;;;;;;19.30;10.45;;;;;;;11.32;46.03;100893.67;1672871;85;21070;-79
2021/10/20 08:12:13;;;;;;;16.97;10.18;;;;;;;11.18;46.96;100889.67;1646751;86;21043;-78
2021/10/20 08:14:42;;;;;;;18.05;9.43;;;;;;;10.94;47.00;100883.30;1667046;85;21593;-79
2021/10/20 08:17:10;;;;;;;;;;;;;;;10.63;48.40;100883.65;1639357;87;21077;-81
2021/10/20 08:19:39;;;;;;;19.48;9.88;;;;;;;10.46;48.95;100883.19;1646627;86;20242;-78
2021/10/20 08:22:06;;;;;;;18.07;9.50;;;;;;;10.27;50.22;100866.48;1664904;85;21064;-78
2021/10/20 08:24:32;;;;;;;17.00;9.30;;;;;;;10.28;51.52;100870.90;1674241;85;21013;-78
2021/10/20 08:26:59;;;;;;;19.30;9.35;;;;;;;10.22;50.05;100859.16;1646559;86;21044;-78
2021/10/20 08:29:26;;;;;;;18.77;9.23;;;;;;;10.14;51.12;100845.30;1626253;87;21175;-78
2021/10/20 08:31:53;;;;;;;17.30;10.13;;;;;;;10.11;51.17;100845.38;1646317;87;21130;-78
2021/10/20 08:34:19;;;;;;;19.70;10.70;;;;;;;10.10;51.46;100856.83;1646492;87;21124;-77
2021/10/20 08:36:47;;;;;;;19.67;8.95;;;;;;;10.07;51.86;100838.45;1673170;85;21115;-76
2021/10/20 08:39:13;;;;;;;25.23;11.65;;;;;;;10.29;51.53;100850.23;1646908;87;21122;-76
2021/10/20 08:41:41;;;;;;;18.85;10.82;;;;;;;10.69;50.96;100833.87;1646589;86;21083;-77
2021/10/20 08:44:08;;;;;;;19.55;10.10;;;;;;;11.07;50.18;100844.71;1659333;85;21072;-80
2021/10/20 08:46:36;;;;;;;21.55;10.98;;;;;;;11.38;49.75;100828.47;1670159;85;21668;-77
2021/10/20 08:49:04;;;;;;;21.23;10.20;;;;;;;11.81;48.71;100828.05;1656328;85;21140;-75
2021/10/20 08:51:32;;;;;;;24.15;11.20;;;;;;;12.07;48.53;100838.27;1627340;86;21018;-74
2021/10/20 08:53:58;;;;;;;26.27;12.33;;;;;;;12.17;48.94;100827.37;1633900;87;21271;-73
2021/10/20 08:56:25;;;;;;;17.30;9.88;;;;;;;12.38;48.17;100829.77;1632644;87;21071;-73
2021/10/20 08:58:53;;;;;;;23.80;10.82;;;;;;;12.44;48.55;100818.58;1646179;87;21079;-75
2021/10/20 09:01:19;;;;;;;18.30;9.83;;;;;;;12.51;48.02;100809.53;1659493;85;21651;-73
2021/10/20 09:03:47;;;;;;;18.92;10.43;;;;;;;12.69;49.60;100802.28;1649979;85;21758;-73
2021/10/20 09:06:15;;;;;;;24.70;11.83;;;;;;;12.85;48.70;100796.00;1632977;87;21666;-73
2021/10/20 09:08:44;;;;;;;22.13;11.65;;;;;;;12.96;49.32;100775.33;1635421;87;21141;-73
2021/10/20 09:14:06;;;;;;;22.48;12.15;;;;;;;13.55;48.49;100766.53;1643317;87;21141;-74
2021/10/20 09:16:36;;;;;;;20.75;11.97;;;;;;;13.81;48.20;100761.55;1654171;85;21542;-74
2021/10/20 09:19:31;;;;;;;29.40;13.15;;;;;;;14.11;47.48;100755.92;1659125;85;21166;-72
2021/10/20 09:21:57;;;;;;;21.60;12.10;;;;;;;14.44;47.33;100751.81;1661469;85;21483;-74
2021/10/20 09:24:38;;;;;;;21.73;12.15;;;;;;;14.57;46.84;100752.19;1673526;85;21328;-74
2021/10/20 09:27:21;;;;;;;24.18;12.07;;;;;;;14.43;47.15;100749.25;1630676;87;21616;-74
2021/10/20 09:29:47;;;;;;;20.15;12.40;;;;;;;14.51;47.86;100741.81;1610040;87;21166;-74
2021/10/20 09:32:14;;;;;;;22.73;11.97;;;;;;;14.57;47.03;100744.71;1656902;85;21115;-73
2021/10/20 09:34:40;;;;;;;22.70;11.35;;;;;;;14.52;47.71;100726.80;1656554;85;21113;-73
2021/10/20 09:37:07;;;;;;;20.30;13.30;;;;;;;14.45;47.69;100724.41;1622336;87;21117;-72
2021/10/20 09:39:37;;;;;;;21.90;11.48;;;;;;;14.68;47.95;100723.89;1673566;85;21580;-76
2021/10/20 09:42:09;;;;;;;24.27;13.60;;;;;;;14.87;47.06;100720.80;1611426;88;21061;-76
2021/10/20 09:44:50;;;;;;;23.00;13.30;;;;;;;14.61;48.19;100722.45;1654354;85;21847;-74
2021/10/20 09:47:17;;;;;;;29.05;13.75;;;;;;;14.38;49.36;100728.25;1644609;87;21145;-75
2021/10/20 09:49:56;;;;;;;28.80;13.50;;;;;;;14.01;50.77;100715.25;1645938;87;21068;-75
2021/10/20 09:52:24;;;;;;;27.82;15.18;;;;;;;13.89;51.50;100711.77;1643425;86;21097;-72
2021/10/20 09:54:51;;;;;;;26.97;14.55;;;;;;;13.87;52.66;100713.62;1643148;87;22182;-72
2021/10/20 09:57:18;;;;;;;30.17;14.43;;;;;;;13.98;52.93;100707.89;1660004;85;21125;-74
2021/10/20 09:59:45;;;;;;;33.60;17.30;;;;;;;14.25;52.25;100697.44;1616837;87;21052;-72
2021/10/20 10:02:11;;;;;;;22.27;13.43;;;;;;;14.48;52.63;100697.76;1619139;87;21701;-72
2021/10/20 10:04:39;;;;;;;28.55;15.50;;;;;;;14.74;51.56;100695.77;1661056;85;21034;-71
2021/10/20 10:07:08;;;;;;;25.52;13.83;;;;;;;15.12;50.85;100693.15;1652101;86;21068;-72
2021/10/20 10:09:34;;;;;;;28.38;14.93;;;;;;;15.61;49.97;100689.45;1651812;86;21635;-72
2021/10/20 10:12:17;;;;;;;30.70;14.55;;;;;;;15.71;48.95;100681.92;1650538;86;21046;-72
2021/10/20 10:14:55;;;;;;;29.25;14.95;;;;;;;15.51;49.46;100671.80;1651271;85;21125;-72
2021/10/20 10:17:22;;;;;;;28.07;14.55;;;;;;;15.36;49.84;100677.84;1656339;85;21102;-72
2021/10/20 10:19:49;;;;;;;25.57;15.30;;;;;;;15.27;50.38;100668.52;1650931;86;21043;-73
2021/10/20 10:22:24;;;;;;;34.18;16.10;;;;;;;15.34;50.56;100662.94;1650707;86;21512;-73
2021/10/20 10:24:51;;;;;;;27.42;16.48;;;;;;;15.35;50.49;100654.05;1617078;88;21517;-73
2021/10/20 10:27:18;;;;;;;26.62;13.10;;;;;;;15.48;50.10;100655.16;1652889;85;21680;-74
2021/10/20 10:30:00;;;;;;;30.10;14.87;;;;;;;15.35;50.22;100651.41;1678152;85;21181;-72
2021/10/20 10:32:29;;;;;;;26.77;14.28;;;;;;;15.16;50.96;100648.31;1616354;88;21092;-72
2021/10/20 10:34:57;;;;;;;32.78;14.63;;;;;;;15.09;51.07;100644.20;1650647;85;21289;-71
2021/10/20 10:37:32;;;;;;;36.58;15.85;;;;;;;14.89;52.16;100650.47;1650600;86;21058;-73
2021/10/20 10:40:19;;;;;;;34.63;15.93;;;;;;;14.87;52.32;100643.90;1670888;85;21046;-75
2021/10/20 10:42:47;;;;;;;33.85;15.13;;;;;;;14.61;53.20;100641.61;1677970;85;21878;-78
2021/10/20 10:45:17;;;;;;;28.90;17.05;;;;;;;14.68;53.54;100639.92;1657109;85;21044;-78
2021/10/20 10:48:06;;;;;;;36.00;16.37;;;;;;;14.74;53.78;100645.39;1666476;85;22152;-79
2021/10/20 10:50:49;;;;;;;27.90;16.27;;;;;;;14.86;53.48;100642.19;1659031;85;21088;-78
2021/10/20 10:53:30;;;;;;;30.68;15.48;;;;;;;15.36;52.77;100639.84;1675552;85;21126;-78
2021/10/20 10:56:07;;;;;;;29.00;14.07;;;;;;;15.60;52.25;100628.47;1663265;85;21105;-80
2021/10/20 10:59:02;;;;;;;27.95;14.50;;;;;;;15.65;51.82;100631.30;1676621;85;21078;-80
2021/10/20 11:01:48;;;;;;;31.70;16.60;;;;;;;15.52;51.63;100627.53;1686997;84;21503;-80
2021/10/20 11:04:26;;;;;;;31.25;15.93;;;;;;;15.25;52.53;100614.70;1694325;83;21058;-82
2021/10/20 11:06:56;;;;;;;29.18;16.90;;;;;;;15.04;52.95;100610.41;1694843;84;21059;-80
2021/10/20 11:09:33;;;;;;;31.45;16.10;;;;;;;14.84;53.87;100604.27;1694624;84;21581;-80
2021/10/20 11:12:02;;;;;;;31.68;15.05;;;;;;;14.74;54.91;100592.37;1695409;83;21026;-79
2021/10/20 11:14:30;;;;;;;32.98;16.65;;;;;;;14.51;55.24;100592.55;1695308;84;21169;-79
2021/10/20 11:17:06;;;;;;;34.83;17.15;;;;;;;14.34;56.31;100586.23;1695859;84;21253;-81
2021/10/20 11:19:33;;;;;;;39.75;19.10;;;;;;;14.16;56.70;100579.11;1668150;84;21058;-76
2021/10/20 11:22:02;;;;;;;28.73;15.85;;;;;;;14.01;57.56;100581.52;1669053;84;21086;-81